Time;durP1;ratioP1;P1;durP2;ratioP2;P2;SDS_P1;SDS_P2;PMS_P1;PMS_P2;Temp;Humidity;BMP_temperature;BMP_pressure;BME280_temperature;BME280_humidity;BME280_pressure;Samples;Min_cycle;Max_cycle;Signal;HPM_P1;HPM_P2
2022/09/02 00:01:43;;;;;;;5.28;1.80;;;16.70;99.90;;;;;;4990311;28;20550;-81
2022/09/02 00:04:13;;;;;;;4.00;1.60;;;16.70;99.90;;;;;;4980763;28;20027;-80
2022/09/02 00:06:40;;;;;;;4.00;2.00;;;16.70;99.90;;;;;;4980985;28;20030;-81
2022/09/02 00:09:07;;;;;;;3.95;2.20;;;16.70;99.90;;;;;;4976978;28;20085;-81
2022/09/02 00:11:35;;;;;;;2.78;1.70;;;16.70;99.90;;;;;;4968578;28;20420;-81
2022/09/02 00:14:04;;;;;;;2.72;1.90;;;16.70;99.90;;;;;;4975662;28;20424;-81
2022/09/02 00:16:31;;;;;;;3.42;1.95;;;16.60;99.90;;;;;;4975604;28;20050;-82
2022/09/02 00:18:57;;;;;;;2.55;2.15;;;16.60;99.90;;;;;;4985320;28;20636;-80
2022/09/02 00:21:24;;;;;;;2.50;1.60;;;16.60;99.90;;;;;;4984227;28;20126;-81
2022/09/02 00:23:50;;;;;;;2.28;1.92;;;16.60;99.90;;;;;;4980120;28;20542;-79
2022/09/02 00:26:17;;;;;;;2.92;1.98;;;16.50;99.90;;;;;;4980366;28;20085;-79
2022/09/02 00:28:43;;;;;;;2.42;1.58;;;16.50;99.90;;;;;;4980422;28;20038;-79
2022/09/02 00:31:08;;;;;;;3.95;1.67;;;16.50;99.90;;;;;;4980496;28;20038;-80
2022/09/02 00:33:34;;;;;;;4.75;1.40;;;16.40;99.90;;;;;;4983352;28;20407;-81
2022/09/02 00:36:02;;;;;;;2.55;1.40;;;16.40;99.90;;;;;;4991087;28;20042;-83
2022/09/02 00:38:30;;;;;;;2.78;1.67;;;16.40;99.90;;;;;;4974924;28;20018;-83
2022/09/02 00:40:56;;;;;;;2.50;1.73;;;16.40;99.90;;;;;;4974853;28;20106;-83
2022/09/02 00:43:57;;;;;;;2.78;1.38;;;16.40;99.90;;;;;;4974565;28;20069;-83
2022/09/02 00:46:26;;;;;;;1.95;1.50;;;16.40;99.90;;;;;;4973752;28;20027;-83
2022/09/02 00:49:10;;;;;;;3.63;1.50;;;16.40;99.90;;;;;;4974153;28;20023;-83
2022/09/02 00:51:42;;;;;;;4.13;1.92;;;16.40;99.90;;;;;;4982523;28;20537;-83
2022/09/02 00:54:10;;;;;;;2.33;1.50;;;16.30;99.90;;;;;;4974024;28;20072;-83
2022/09/02 00:56:38;;;;;;;2.50;1.65;;;16.30;99.90;;;;;;4973668;28;20117;-83
2022/09/02 00:59:07;;;;;;;2.90;2.00;;;16.20;99.90;;;;;;4975490;28;20027;-82
2022/09/02 01:01:33;;;;;;;4.45;2.25;;;16.20;99.90;;;;;;4974769;28;20116;-82
2022/09/02 01:03:59;;;;;;;3.78;2.35;;;16.10;99.90;;;;;;4978966;28;20483;-82
2022/09/02 01:06:27;;;;;;;2.28;1.92;;;16.10;99.90;;;;;;4973608;28;20022;-82
2022/09/02 01:09:01;;;;;;;2.78;2.17;;;16.00;99.90;;;;;;4976399;28;20035;-80
2022/09/02 01:11:31;;;;;;;2.25;2.00;;;16.00;99.90;;;;;;4973419;28;20919;-80
2022/09/02 01:13:58;;;;;;;4.32;2.30;;;15.90;99.90;;;;;;4972811;28;20027;-78
2022/09/02 01:16:34;;;;;;;4.22;2.40;;;15.90;99.90;;;;;;4991678;28;20824;-79
2022/09/02 01:19:05;;;;;;;7.18;2.75;;;15.90;99.90;;;;;;4969292;28;20018;-79
2022/09/02 01:21:31;;;;;;;4.22;2.60;;;15.80;99.90;;;;;;4975020;28;20443;-79
2022/09/02 01:23:56;;;;;;;4.88;3.00;;;15.70;99.90;;;;;;4977053;28;20034;-78
2022/09/02 01:26:22;;;;;;;5.00;2.88;;;15.70;99.90;;;;;;4979309;28;20046;-78
2022/09/02 01:28:48;;;;;;;5.95;3.00;;;15.70;99.90;;;;;;4989830;28;20043;-77
2022/09/02 01:31:14;;;;;;;4.05;2.90;;;15.60;99.90;;;;;;4975726;28;20551;-77
2022/09/02 01:33:39;;;;;;;3.35;2.78;;;15.60;99.90;;;;;;4988006;28;20035;-78
2022/09/02 01:36:07;;;;;;;3.92;3.08;;;15.50;99.90;;;;;;4977870;28;20515;-78
2022/09/02 01:38:32;;;;;;;4.15;3.45;;;15.50;99.90;;;;;;4978924;28;20034;-77
2022/09/02 01:40:59;;;;;;;4.00;3.00;;;15.50;99.90;;;;;;4992049;28;20031;-77
2022/09/02 01:43:26;;;;;;;6.57;3.75;;;15.50;99.90;;;;;;4973766;28;20106;-76
2022/09/02 01:45:54;;;;;;;5.25;3.33;;;15.50;99.90;;;;;;4989394;28;20023;-77
2022/09/02 01:48:20;;;;;;;5.57;3.13;;;15.50;99.90;;;;;;4993204;28;20034;-78
2022/09/02 01:50:51;;;;;;;6.25;2.90;;;15.40;99.90;;;;;;4971421;28;20981;-78
2022/09/02 01:53:17;;;;;;;4.40;3.10;;;15.40;99.90;;;;;;4975812;28;20022;-79
2022/09/02 01:55:43;;;;;;;4.72;3.25;;;15.30;99.90;;;;;;4972640;28;20117;-77
2022/09/02 01:58:09;;;;;;;4.88;3.15;;;15.20;99.90;;;;;;4974232;28;20043;-77
2022/09/02 02:00:35;;;;;;;4.43;3.00;;;15.20;99.90;;;;;;4978317;28;20062;-77
2022/09/02 02:03:01;;;;;;;4.55;2.78;;;15.20;99.90;;;;;;4973876;28;20086;-77
2022/09/02 02:05:29;;;;;;;3.97;2.70;;;15.20;99.90;;;;;;4977260;28;20027;-76
2022/09/02 02:07:55;;;;;;;4.25;2.65;;;15.20;99.90;;;;;;4978596;28;20029;-77
2022/09/02 02:10:21;;;;;;;4.28;2.90;;;15.10;99.90;;;;;;4979947;28;20030;-77
2022/09/02 02:12:47;;;;;;;6.55;2.67;;;15.10;99.90;;;;;;4976532;28;20037;-78
2022/09/02 02:15:16;;;;;;;3.70;2.70;;;15.10;99.90;;;;;;4976472;28;20098;-79
2022/09/02 02:17:42;;;;;;;4.85;2.30;;;15.10;99.90;;;;;;4977427;28;20067;-78
2022/09/02 02:20:09;;;;;;;3.38;2.33;;;15.00;99.90;;;;;;4973457;28;20085;-78
2022/09/02 02:22:35;;;;;;;3.72;1.92;;;15.10;99.90;;;;;;4980632;28;20049;-78
2022/09/02 02:25:01;;;;;;;4.97;1.70;;;15.00;99.90;;;;;;4970455;28;20387;-78
2022/09/02 02:27:27;;;;;;;3.10;2.28;;;15.00;99.90;;;;;;4973787;28;20046;-78
2022/09/02 02:29:52;;;;;;;3.75;2.55;;;15.00;99.90;;;;;;4989926;28;20066;-76
2022/09/02 02:32:18;;;;;;;2.58;2.10;;;15.00;99.90;;;;;;4972239;28;20129;-77
2022/09/02 02:34:45;;;;;;;4.22;2.22;;;15.00;99.90;;;;;;4972194;28;20027;-77
2022/09/02 02:37:12;;;;;;;2.47;1.50;;;15.00;99.90;;;;;;4970635;28;20027;-76
2022/09/02 02:39:39;;;;;;;2.75;1.38;;;15.00;99.90;;;;;;4985518;28;20035;-76
2022/09/02 02:42:06;;;;;;;3.05;1.95;;;15.00;99.90;;;;;;4973981;28;20050;-80
2022/09/02 02:44:31;;;;;;;3.20;1.70;;;15.00;99.90;;;;;;4974587;28;20030;-79
2022/09/02 02:46:57;;;;;;;2.55;1.65;;;15.00;99.90;;;;;;4979049;28;20046;-78
2022/09/02 02:49:25;;;;;;;3.92;1.85;;;15.00;99.90;;;;;;4973869;28;20116;-77
2022/09/02 02:51:52;;;;;;;3.45;2.17;;;15.00;99.90;;;;;;4974018;28;20041;-78
2022/09/02 02:54:19;;;;;;;4.28;1.95;;;15.00;99.90;;;;;;4983252;28;20205;-78
2022/09/02 02:56:44;;;;;;;2.47;1.30;;;15.00;99.90;;;;;;4981737;28;20063;-78
2022/09/02 02:59:10;;;;;;;2.65;1.55;;;15.00;99.90;;;;;;4973861;28;20023;-78
2022/09/02 03:01:36;;;;;;;2.55;1.40;;;15.00;99.90;;;;;;4981115;28;20101;-78
2022/09/02 03:04:03;;;;;;;2.13;1.08;;;15.00;99.90;;;;;;4974600;28;20457;-77
2022/09/02 03:06:29;;;;;;;3.72;1.45;;;15.10;99.90;;;;;;4976059;28;20030;-77
2022/09/02 03:08:56;;;;;;;2.28;1.35;;;15.10;99.90;;;;;;4973459;28;20109;-77
2022/09/02 03:11:22;;;;;;;2.45;1.70;;;15.10;99.90;;;;;;4988720;28;20039;-77
2022/09/02 03:13:51;;;;;;;4.15;1.40;;;15.10;99.90;;;;;;4979391;28;20039;-79
2022/09/02 03:16:18;;;;;;;1.98;1.15;;;15.10;99.90;;;;;;4978664;28;20065;-80
2022/09/02 03:18:46;;;;;;;3.65;1.40;;;15.10;99.90;;;;;;4979644;28;20034;-81
2022/09/02 03:21:12;;;;;;;3.20;1.45;;;15.10;99.90;;;;;;4976558;28;20046;-81
2022/09/02 03:23:38;;;;;;;2.78;1.70;;;15.10;99.90;;;;;;4976315;28;20037;-80
2022/09/02 03:26:12;;;;;;;2.53;1.45;;;15.20;99.90;;;;;;4984240;28;20022;-81
2022/09/02 03:28:39;;;;;;;1.80;1.40;;;15.10;99.90;;;;;;4977655;28;20507;-80
2022/09/02 03:31:05;;;;;;;2.58;1.10;;;15.10;99.90;;;;;;4978318;28;20415;-81
2022/09/02 03:33:31;;;;;;;3.05;1.38;;;15.10;99.90;;;;;;4996228;28;20496;-80
2022/09/02 03:35:57;;;;;;;4.25;1.55;;;15.10;99.90;;;;;;4974926;28;20149;-81
2022/09/02 03:38:23;;;;;;;1.30;1.10;;;15.10;99.90;;;;;;4976255;28;20395;-80
2022/09/02 03:40:48;;;;;;;2.83;1.48;;;15.10;99.90;;;;;;4977375;28;20031;-78
2022/09/02 03:43:14;;;;;;;3.28;1.60;;;15.10;99.90;;;;;;4979018;28;20068;-79
2022/09/02 03:45:40;;;;;;;2.80;1.20;;;15.10;99.90;;;;;;5003129;28;20392;-78
2022/09/02 03:48:07;;;;;;;2.58;1.50;;;15.10;99.90;;;;;;4973745;28;20035;-79
2022/09/02 03:50:38;;;;;;;2.30;1.27;;;15.10;99.90;;;;;;4986211;28;20022;-79
2022/09/02 03:53:05;;;;;;;3.05;1.55;;;15.10;99.90;;;;;;4979201;28;20041;-77
2022/09/02 03:55:31;;;;;;;1.80;1.20;;;15.10;99.90;;;;;;4977172;28;20106;-76
2022/09/02 03:57:57;;;;;;;1.83;1.30;;;15.00;99.90;;;;;;4975864;28;20519;-79
2022/09/02 04:00:24;;;;;;;3.30;1.13;;;15.10;99.90;;;;;;4981078;28;20039;-80
2022/09/02 04:02:53;;;;;;;2.22;1.60;;;15.10;99.90;;;;;;4995757;28;20483;-79
2022/09/02 04:05:18;;;;;;;5.40;1.95;;;15.10;99.90;;;;;;4993767;28;20037;-78
2022/09/02 04:07:44;;;;;;;3.72;1.70;;;15.10;99.90;;;;;;4994844;28;20503;-77
2022/09/02 04:10:10;;;;;;;6.47;1.63;;;15.00;99.90;;;;;;4977531;28;20027;-80
2022/09/02 04:12:36;;;;;;;2.80;1.60;;;15.00;99.90;;;;;;4981803;28;20039;-79
2022/09/02 04:15:07;;;;;;;5.63;1.73;;;15.00;99.90;;;;;;4980612;28;20042;-79
2022/09/02 04:21:11;;;;;;;4.05;1.70;;;15.00;99.90;;;;;;4977950;28;20068;-79
2022/09/02 04:23:37;;;;;;;4.60;1.77;;;14.90;99.90;;;;;;4975187;28;20105;-78
2022/09/02 04:26:06;;;;;;;3.40;1.95;;;15.00;99.90;;;;;;4972961;28;20046;-78
2022/09/02 04:28:31;;;;;;;2.45;1.67;;;15.00;99.90;;;;;;4969493;28;20035;-77
2022/09/02 04:30:57;;;;;;;4.13;2.70;;;15.00;99.90;;;;;;4976731;28;20160;-78
2022/09/02 04:33:23;;;;;;;4.25;1.90;;;14.90;99.90;;;;;;4992532;28;20023;-79
2022/09/02 04:35:48;;;;;;;3.38;1.90;;;14.90;99.90;;;;;;4973319;28;20081;-79
2022/09/02 04:38:15;;;;;;;2.85;2.00;;;14.90;99.90;;;;;;4979814;28;20484;-82
2022/09/02 04:40:46;;;;;;;4.63;2.00;;;14.90;99.90;;;;;;4977593;28;20551;-77
2022/09/02 04:43:13;;;;;;;3.33;1.73;;;14.90;99.90;;;;;;4978153;28;20022;-78
2022/09/02 04:45:41;;;;;;;3.20;2.20;;;14.80;99.90;;;;;;4973270;28;20035;-78
2022/09/02 04:48:06;;;;;;;3.90;1.75;;;14.80;99.90;;;;;;4976933;28;20078;-78
2022/09/02 04:50:34;;;;;;;2.80;1.95;;;14.80;99.90;;;;;;4979208;28;20035;-77
2022/09/02 04:52:59;;;;;;;3.33;1.90;;;14.80;99.90;;;;;;4958615;28;20435;-77
2022/09/02 04:55:25;;;;;;;4.95;2.22;;;14.80;99.90;;;;;;4984247;28;20026;-80
2022/09/02 04:57:51;;;;;;;4.15;1.75;;;14.80;99.90;;;;;;4977702;28;20480;-78
2022/09/02 05:00:18;;;;;;;4.97;1.98;;;14.80;99.90;;;;;;4992513;28;20030;-73
2022/09/02 05:02:44;;;;;;;4.28;1.80;;;14.70;99.90;;;;;;4976848;28;20534;-72
2022/09/02 05:05:09;;;;;;;3.97;1.70;;;14.70;99.90;;;;;;4974485;28;20046;-72
2022/09/02 05:07:37;;;;;;;3.08;1.70;;;14.80;99.90;;;;;;4973884;28;20039;-72
2022/09/02 05:10:04;;;;;;;2.03;1.63;;;14.80;99.90;;;;;;4974807;28;20026;-72
2022/09/02 05:12:34;;;;;;;3.50;1.60;;;14.90;99.90;;;;;;4974138;28;20031;-71
2022/09/02 05:15:00;;;;;;;4.05;1.90;;;14.90;99.90;;;;;;4974710;28;20022;-71
2022/09/02 05:17:30;;;;;;;2.35;1.75;;;14.80;99.90;;;;;;4975260;28;20488;-71
2022/09/02 05:19:56;;;;;;;3.30;1.63;;;14.90;99.90;;;;;;4975082;28;20023;-72
2022/09/02 05:22:22;;;;;;;4.18;1.90;;;15.00;99.90;;;;;;4974865;28;20033;-72
2022/09/02 05:24:48;;;;;;;2.90;1.80;;;15.00;99.90;;;;;;4974629;28;20217;-73
2022/09/02 05:27:15;;;;;;;5.20;1.90;;;15.10;99.90;;;;;;4974643;28;20037;-72
2022/09/02 05:29:41;;;;;;;2.45;1.75;;;15.20;99.90;;;;;;4975692;28;20035;-79
2022/09/02 05:32:07;;;;;;;2.38;1.63;;;15.20;99.90;;;;;;4994723;28;20033;-83
2022/09/02 05:34:34;;;;;;;2.90;1.88;;;15.30;99.90;;;;;;4972735;28;20476;-81
2022/09/02 05:37:01;;;;;;;3.33;1.88;;;15.40;99.90;;;;;;4974937;28;20283;-79
2022/09/02 05:39:27;;;;;;;5.40;1.83;;;15.40;99.90;;;;;;4979122;28;20083;-79
2022/09/02 05:41:52;;;;;;;2.72;1.90;;;15.50;99.90;;;;;;4969480;28;20058;-77
2022/09/02 05:44:18;;;;;;;3.78;2.15;;;15.50;99.90;;;;;;4968003;28;20031;-79
2022/09/02 05:46:44;;;;;;;3.40;1.80;;;15.60;99.90;;;;;;4993416;28;20503;-78
2022/09/02 05:49:16;;;;;;;3.33;1.92;;;15.60;99.90;;;;;;4978327;28;20026;-80
2022/09/02 05:51:43;;;;;;;2.80;2.10;;;15.70;99.90;;;;;;4992328;28;20027;-79
2022/09/02 05:54:12;;;;;;;2.17;1.75;;;15.70;99.90;;;;;;4979330;28;20404;-80
2022/09/02 05:56:42;;;;;;;3.22;1.50;;;15.70;99.90;;;;;;4975402;28;20510;-78
2022/09/02 05:59:09;;;;;;;4.82;1.92;;;15.80;99.90;;;;;;4981535;28;20050;-82
2022/09/02 06:01:35;;;;;;;4.07;1.95;;;15.80;99.90;;;;;;4975695;28;20562;-82
2022/09/02 06:04:02;;;;;;;3.88;1.70;;;15.90;99.90;;;;;;4975955;28;20039;-82
2022/09/02 06:06:29;;;;;;;3.40;1.70;;;15.90;99.90;;;;;;4976051;28;20069;-79
2022/09/02 06:08:54;;;;;;;6.15;1.60;;;16.00;99.90;;;;;;4992548;28;20125;-79
2022/09/02 06:11:21;;;;;;;4.30;1.77;;;16.00;99.90;;;;;;4972723;28;20113;-77
2022/09/02 06:13:48;;;;;;;3.97;1.65;;;16.00;99.90;;;;;;4997636;28;20023;-80
2022/09/02 06:16:20;;;;;;;2.97;1.77;;;16.00;99.90;;;;;;4976501;28;20602;-80
2022/09/02 06:18:46;;;;;;;4.82;2.40;;;16.10;99.90;;;;;;4977633;28;20023;-78
2022/09/02 06:21:13;;;;;;;2.85;1.60;;;16.10;99.90;;;;;;4972543;28;20027;-78
2022/09/02 06:23:39;;;;;;;4.50;1.77;;;16.20;99.90;;;;;;4975752;28;20027;-79
2022/09/02 06:26:07;;;;;;;2.38;1.55;;;16.30;99.90;;;;;;4975011;28;20018;-79
2022/09/02 06:28:33;;;;;;;2.67;1.75;;;16.30;99.90;;;;;;4976964;28;20030;-79
2022/09/02 06:31:04;;;;;;;3.10;1.90;;;16.40;99.90;;;;;;4977090;28;20023;-80
2022/09/02 06:33:30;;;;;;;5.03;1.98;;;16.40;99.90;;;;;;4997994;28;20110;-79
2022/09/02 06:35:56;;;;;;;2.67;1.38;;;16.40;99.90;;;;;;4972498;28;20495;-77
2022/09/02 06:38:21;;;;;;;4.18;1.42;;;16.50;99.90;;;;;;4968320;28;20127;-75
2022/09/02 06:40:53;;;;;;;4.40;1.95;;;16.50;99.90;;;;;;4964999;28;20023;-77
2022/09/02 06:43:19;;;;;;;4.72;2.00;;;16.60;99.90;;;;;;4979427;28;20037;-76
2022/09/02 06:45:45;;;;;;;5.15;1.63;;;16.60;99.90;;;;;;4972510;28;20072;-77
2022/09/02 06:48:11;;;;;;;2.10;1.55;;;16.70;99.90;;;;;;4972871;28;20047;-76
2022/09/02 06:50:44;;;;;;;2.97;1.65;;;16.70;99.90;;;;;;4981046;28;20031;-76
2022/09/02 06:53:10;;;;;;;10.65;1.88;;;16.70;99.90;;;;;;4977419;28;20516;-77
2022/09/02 06:55:42;;;;;;;7.10;2.20;;;16.80;99.90;;;;;;4970012;28;20428;-76
2022/09/02 06:58:08;;;;;;;1.52;1.30;;;16.80;99.90;;;;;;4979920;28;20026;-76
2022/09/02 07:00:35;;;;;;;2.80;1.02;;;16.80;99.90;;;;;;4974574;28;20053;-76
2022/09/02 07:05:46;;;;;;;2.47;1.80;;;17.00;99.90;;;;;;4976757;28;20037;-75
2022/09/02 07:08:12;;;;;;;3.25;1.65;;;17.00;99.90;;;;;;5000782;23;20483;-71
2022/09/02 07:10:39;;;;;;;5.22;1.55;;;17.00;99.90;;;;;;4989929;28;20114;-74
2022/09/02 07:13:05;;;;;;;2.47;1.40;;;17.00;99.90;;;;;;4995850;28;20438;-72
2022/09/02 07:15:31;;;;;;;3.08;1.80;;;17.10;99.90;;;;;;4996747;28;20247;-72
2022/09/02 07:17:56;;;;;;;3.53;1.33;;;17.10;99.90;;;;;;4986080;28;20027;-72
2022/09/02 07:20:22;;;;;;;3.25;1.80;;;17.20;99.90;;;;;;4976137;28;20026;-74
2022/09/02 07:22:48;;;;;;;4.47;1.50;;;17.30;99.90;;;;;;4975389;28;20083;-74
2022/09/02 07:25:15;;;;;;;5.40;2.10;;;17.30;99.90;;;;;;4970501;28;20038;-71
2022/09/02 07:27:42;;;;;;;3.72;1.67;;;17.30;99.90;;;;;;4975645;28;20373;-70
2022/09/02 07:30:09;;;;;;;3.72;2.13;;;17.30;99.90;;;;;;4976643;28;20031;-73
2022/09/02 07:32:35;;;;;;;7.55;2.25;;;17.30;99.90;;;;;;4973296;28;20062;-74
2022/09/02 07:35:03;;;;;;;5.28;1.73;;;17.40;99.90;;;;;;4980696;28;20018;-74
2022/09/02 07:37:28;;;;;;;3.17;1.88;;;17.40;99.90;;;;;;4974485;28;20109;-74
2022/09/02 07:39:55;;;;;;;4.32;2.58;;;17.40;99.90;;;;;;4961781;28;20169;-73
2022/09/02 07:42:21;;;;;;;3.83;1.98;;;17.50;99.90;;;;;;4985377;28;20030;-74
2022/09/02 07:44:46;;;;;;;3.33;1.98;;;17.50;99.90;;;;;;4970768;28;20518;-73
2022/09/02 07:47:12;;;;;;;4.60;2.20;;;17.60;99.90;;;;;;4975329;28;20031;-74
2022/09/02 07:49:38;;;;;;;5.78;2.17;;;17.60;99.90;;;;;;4976379;28;20035;-73
2022/09/02 07:52:03;;;;;;;2.83;1.83;;;17.50;99.90;;;;;;4981191;28;20504;-73
2022/09/02 07:54:31;;;;;;;2.97;1.98;;;17.50;99.90;;;;;;4971776;28;20034;-73
2022/09/02 07:56:57;;;;;;;3.72;1.70;;;17.60;99.90;;;;;;4976283;28;20027;-73
2022/09/02 07:59:23;;;;;;;4.10;2.15;;;17.60;99.90;;;;;;4971341;28;20035;-73
2022/09/02 08:01:50;;;;;;;3.70;1.80;;;17.60;99.90;;;;;;4988836;28;20034;-73
2022/09/02 08:04:18;;;;;;;6.32;2.22;;;17.70;99.90;;;;;;4972911;28;20023;-73
2022/09/02 08:06:44;;;;;;;3.58;1.80;;;17.70;99.90;;;;;;4991560;28;20031;-73
2022/09/02 08:09:10;;;;;;;6.43;2.15;;;17.80;99.90;;;;;;4975131;28;20085;-77
2022/09/02 08:11:43;;;;;;;3.78;1.52;;;17.90;99.90;;;;;;4991613;28;20062;-74
2022/09/02 08:14:10;;;;;;;4.00;1.63;;;17.90;99.90;;;;;;4973504;28;20034;-73
2022/09/02 08:16:37;;;;;;;3.58;1.50;;;18.00;99.90;;;;;;4974727;28;20035;-74
2022/09/02 08:19:04;;;;;;;2.63;1.30;;;18.10;99.90;;;;;;4974645;28;20501;-73
2022/09/02 08:21:30;;;;;;;1.75;1.25;;;18.20;99.90;;;;;;4976342;28;20543;-75
2022/09/02 08:23:56;;;;;;;3.65;1.75;;;18.30;99.90;;;;;;4973319;28;20547;-74
2022/09/02 08:26:22;;;;;;;3.78;1.25;;;18.40;99.30;;;;;;4978940;28;20030;-75
2022/09/02 08:28:47;;;;;;;4.25;1.17;;;18.50;99.00;;;;;;4969819;28;20041;-75
2022/09/02 08:31:13;;;;;;;1.88;1.40;;;18.60;98.50;;;;;;4974776;28;20035;-75
2022/09/02 08:33:39;;;;;;;2.92;1.38;;;18.70;98.10;;;;;;4963131;28;20498;-75
2022/09/02 08:36:07;;;;;;;3.88;1.27;;;18.80;97.60;;;;;;4971704;28;20149;-75
2022/09/02 08:38:35;;;;;;;2.55;1.23;;;18.90;97.60;;;;;;4974492;28;20035;-74
2022/09/02 08:41:01;;;;;;;3.78;1.17;;;19.00;97.30;;;;;;4974587;28;20023;-73
2022/09/02 08:43:27;;;;;;;4.10;1.70;;;19.10;96.70;;;;;;4992465;28;20034;-76
2022/09/02 08:45:59;;;;;;;3.10;1.00;;;19.20;95.90;;;;;;4994901;28;20027;-76
2022/09/02 08:48:32;;;;;;;2.38;1.20;;;19.30;95.40;;;;;;4976457;28;20440;-75
2022/09/02 08:51:03;;;;;;;2.23;1.10;;;19.30;94.90;;;;;;4987163;28;20031;-75
2022/09/02 08:53:31;;;;;;;2.15;1.15;;;19.40;95.00;;;;;;4969417;28;20031;-76
2022/09/02 08:56:00;;;;;;;4.20;1.20;;;19.50;94.40;;;;;;4988596;28;20023;-72
2022/09/02 08:58:37;;;;;;;2.75;1.10;;;19.50;94.10;;;;;;4975153;28;20027;-73
2022/09/02 09:01:31;;;;;;;2.17;1.35;;;19.60;93.60;;;;;;4968872;28;20448;-73
2022/09/02 09:04:03;;;;;;;;;;;19.70;93.30;;;;;;4977078;28;20058;-73
2022/09/02 09:06:53;;;;;;;3.50;1.10;;;19.70;93.00;;;;;;4973204;28;20355;-72
2022/09/02 09:09:47;;;;;;;2.88;1.17;;;19.80;93.10;;;;;;4979608;28;20030;-73
2022/09/02 09:12:16;;;;;;;3.55;1.25;;;19.90;93.10;;;;;;4984356;28;20050;-73
2022/09/02 09:15:02;;;;;;;1.63;0.90;;;19.90;92.90;;;;;;4976179;28;20027;-73
2022/09/02 09:17:50;;;;;;;2.10;1.15;;;19.90;92.60;;;;;;4971227;28;20479;-73
2022/09/02 09:20:23;;;;;;;2.20;1.08;;;20.00;92.70;;;;;;4975577;28;20039;-74
2022/09/02 09:22:55;;;;;;;2.05;1.00;;;20.00;92.60;;;;;;4974720;28;20066;-74
2022/09/02 09:25:27;;;;;;;3.28;1.40;;;20.10;92.60;;;;;;4982575;28;20041;-73
2022/09/02 09:27:52;;;;;;;2.05;1.30;;;20.10;92.30;;;;;;4975816;28;20085;-73
2022/09/02 09:30:18;;;;;;;4.07;1.20;;;20.10;92.30;;;;;;4974317;28;20030;-74
2022/09/02 09:32:53;;;;;;;3.85;1.27;;;20.20;92.20;;;;;;4976806;28;20034;-74
2022/09/02 09:35:19;;;;;;;2.78;1.48;;;20.20;91.90;;;;;;4987361;28;20472;-74
2022/09/02 09:37:50;;;;;;;4.00;1.20;;;20.20;92.10;;;;;;4976141;28;20027;-74
2022/09/02 09:40:21;;;;;;;3.17;1.23;;;20.20;92.00;;;;;;4990732;28;20491;-73
2022/09/02 09:43:04;;;;;;;3.55;1.30;;;20.30;91.90;;;;;;4976552;28;20049;-73
2022/09/02 09:45:36;;;;;;;2.03;0.93;;;20.30;91.70;;;;;;4969603;28;20034;-73
2022/09/02 09:48:28;;;;;;;3.17;1.33;;;20.30;92.10;;;;;;4974594;28;20037;-73
2022/09/02 09:50:54;;;;;;;1.85;1.30;;;20.30;92.10;;;;;;4973765;28;20026;-75
2022/09/02 09:53:21;;;;;;;5.93;1.50;;;20.30;91.60;;;;;;4971883;28;20104;-74
2022/09/02 09:55:56;;;;;;;2.13;1.10;;;20.40;91.10;;;;;;4972312;28;20019;-73
2022/09/02 09:58:26;;;;;;;2.65;1.10;;;20.30;91.20;;;;;;4971759;28;20030;-74
2022/09/02 10:00:59;;;;;;;1.27;1.15;;;20.40;90.80;;;;;;4986619;28;20031;-74
2022/09/02 10:03:27;;;;;;;5.28;1.48;;;20.40;90.80;;;;;;4971423;28;20032;-74
2022/09/02 10:05:58;;;;;;;2.72;1.35;;;20.50;91.00;;;;;;4972976;28;20414;-74
2022/09/02 10:08:27;;;;;;;2.50;1.45;;;20.50;90.60;;;;;;4968349;28;20039;-74
2022/09/02 10:10:58;;;;;;;3.80;1.67;;;20.50;90.80;;;;;;4970528;28;20081;-74
2022/09/02 10:13:31;;;;;;;2.17;1.08;;;20.60;90.50;;;;;;4974319;28;20562;-75
2022/09/02 10:16:22;;;;;;;3.17;1.30;;;20.60;90.70;;;;;;4971185;28;20031;-74
2022/09/02 10:18:59;;;;;;;3.92;1.27;;;20.70;90.50;;;;;;4973743;28;20480;-74
2022/09/02 10:21:44;;;;;;;2.08;1.23;;;20.70;90.40;;;;;;4964911;28;20031;-74
2022/09/02 10:24:46;;;;;;;3.60;1.27;;;20.70;90.20;;;;;;4975703;28;20024;-74
2022/09/02 10:27:33;;;;;;;1.48;1.20;;;20.70;90.30;;;;;;4969535;28;20026;-73
2022/09/02 10:30:06;;;;;;;1.67;1.17;;;20.70;90.00;;;;;;4978607;28;20496;-73
2022/09/02 10:32:55;;;;;;;3.28;1.33;;;20.70;89.40;;;;;;4968592;28;20031;-73
2022/09/02 10:35:28;;;;;;;3.78;1.25;;;20.70;90.00;;;;;;4996250;28;20583;-73
2022/09/02 10:38:11;;;;;;;3.22;1.33;;;20.80;89.80;;;;;;4993889;28;20034;-74
2022/09/02 10:40:46;;;;;;;5.93;1.60;;;20.80;89.30;;;;;;4978878;28;20522;-76
2022/09/02 10:43:20;;;;;;;1.70;1.30;;;20.90;88.80;;;;;;4987217;28;20049;-74
2022/09/02 10:45:49;;;;;;;3.65;1.35;;;20.90;89.10;;;;;;4978020;28;20027;-74
2022/09/02 10:48:49;;;;;;;4.35;1.38;;;21.00;88.80;;;;;;4979584;28;20031;-74
2022/09/02 10:51:42;;;;;;;3.15;1.20;;;21.00;88.30;;;;;;4979617;28;20038;-74
2022/09/02 10:54:23;;;;;;;2.63;1.40;;;21.10;88.00;;;;;;4990978;28;20035;-74
2022/09/02 10:56:58;;;;;;;2.65;1.15;;;21.10;86.20;;;;;;4977963;28;20214;-73
2022/09/02 10:59:43;;;;;;;3.17;1.23;;;21.10;86.70;;;;;;4981362;28;20022;-74
2022/09/02 11:02:15;;;;;;;1.98;1.50;;;21.10;86.90;;;;;;4980388;28;20034;-74
2022/09/02 11:04:55;;;;;;;2.63;1.33;;;21.10;86.40;;;;;;4986381;28;20402;-74
2022/09/02 11:07:27;;;;;;;3.20;1.40;;;21.10;86.50;;;;;;4991269;28;20126;-74
2022/09/02 11:10:07;;;;;;;4.20;1.45;;;21.10;86.50;;;;;;4991620;28;20084;-73
2022/09/02 11:12:55;;;;;;;2.10;1.30;;;21.20;87.00;;;;;;4973619;28;20027;-73
2022/09/02 11:15:38;;;;;;;2.90;1.13;;;21.20;87.80;;;;;;4974352;28;20024;-74
2022/09/02 11:18:43;;;;;;;3.90;1.33;;;21.20;87.30;;;;;;4972654;28;20117;-73
2022/09/02 11:22:02;;;;;;;3.13;1.38;;;21.20;86.70;;;;;;4979564;28;20022;-74
2022/09/02 11:24:56;;;;;;;3.55;1.40;;;21.20;86.10;;;;;;4974542;28;20042;-73
2022/09/02 11:27:59;;;;;;;2.85;1.60;;;21.20;86.30;;;;;;4971676;28;20089;-74
2022/09/02 11:30:42;;;;;;;2.33;1.50;;;21.30;86.40;;;;;;4989269;28;20038;-74
2022/09/02 11:33:20;;;;;;;1.45;0.93;;;21.30;85.70;;;;;;4971949;28;20117;-74
2022/09/02 11:35:46;;;;;;;3.55;1.23;;;21.30;85.80;;;;;;4974898;28;20042;-74
2022/09/02 11:38:14;;;;;;;2.40;1.58;;;21.30;86.80;;;;;;4972798;28;20030;-74
2022/09/02 11:41:16;;;;;;;3.17;1.50;;;21.30;86.90;;;;;;4970554;28;20034;-74
2022/09/02 11:43:48;;;;;;;1.67;1.30;;;21.40;86.20;;;;;;4969871;28;20031;-74
2022/09/02 11:47:14;;;;;;;2.92;1.50;;;21.40;86.50;;;;;;4972552;28;20059;-74
2022/09/02 11:50:01;;;;;;;3.65;2.03;;;21.40;86.50;;;;;;4952447;28;20506;-74
2022/09/02 11:52:51;;;;;;;5.20;1.38;;;21.50;86.60;;;;;;4971971;28;20105;-74
2022/09/02 11:55:30;;;;;;;3.83;1.75;;;21.50;86.30;;;;;;4966366;28;20019;-74
2022/09/02 11:57:59;;;;;;;3.72;1.20;;;21.60;86.20;;;;;;4970903;28;20492;-74
2022/09/02 12:00:55;;;;;;;2.70;1.63;;;21.60;86.00;;;;;;4980273;28;20094;-75
2022/09/02 12:03:28;;;;;;;2.35;1.80;;;21.60;85.40;;;;;;4990269;28;20038;-75
2022/09/02 12:06:12;;;;;;;3.17;1.55;;;21.60;85.10;;;;;;4986563;28;20057;-74
2022/09/02 12:08:42;;;;;;;;;;;21.60;85.60;;;;;;4987956;28;20043;-72
2022/09/02 12:11:29;;;;;;;7.53;1.85;;;21.60;85.50;;;;;;4972189;28;20014;-75
2022/09/02 12:13:55;;;;;;;5.60;1.83;;;21.60;85.50;;;;;;4973769;28;20511;-75
2022/09/02 12:16:27;;;;;;;2.40;1.70;;;21.60;85.10;;;;;;4984557;28;20027;-74
2022/09/02 12:18:59;;;;;;;1.98;1.40;;;21.60;85.10;;;;;;4991545;28;20034;-75
2022/09/02 12:21:28;;;;;;;2.83;1.50;;;21.60;84.30;;;;;;4989907;28;20063;-74
2022/09/02 12:23:54;;;;;;;3.90;1.50;;;21.60;83.90;;;;;;4989549;28;20027;-75
2022/09/02 12:26:22;;;;;;;1.58;1.08;;;21.60;82.90;;;;;;4975209;28;20556;-74
2022/09/02 12:28:53;;;;;;;4.00;1.50;;;21.60;82.40;;;;;;4978371;28;20019;-74
2022/09/02 12:31:19;;;;;;;2.75;1.30;;;21.60;81.50;;;;;;4969834;28;20109;-74
2022/09/02 12:33:56;;;;;;;2.10;1.20;;;21.60;80.70;;;;;;4978292;28;20022;-74
2022/09/02 12:36:38;;;;;;;2.92;1.52;;;21.60;81.80;;;;;;4973001;28;20035;-75
2022/09/02 12:39:42;;;;;;;4.00;1.80;;;21.60;83.20;;;;;;4968898;28;20427;-74
2022/09/02 12:42:09;;;;;;;3.40;1.33;;;21.70;84.20;;;;;;4967585;28;20023;-75
2022/09/02 12:45:12;;;;;;;2.75;1.40;;;21.70;84.30;;;;;;4975112;28;20034;-75
2022/09/02 12:48:13;;;;;;;3.20;1.20;;;21.80;83.90;;;;;;4967883;28;20519;-75
2022/09/02 12:50:55;;;;;;;2.35;1.50;;;21.80;83.70;;;;;;4976827;28;20415;-75
2022/09/02 12:53:23;;;;;;;3.30;1.50;;;21.90;83.20;;;;;;4973235;28;20019;-75
2022/09/02 12:55:52;;;;;;;2.20;1.23;;;21.80;83.40;;;;;;4973852;28;20057;-75
2022/09/02 12:58:21;;;;;;;4.22;1.83;;;21.90;83.60;;;;;;4981819;28;20030;-74
2022/09/02 13:01:04;;;;;;;4.22;1.73;;;22.00;84.30;;;;;;4973770;28;20045;-75
2022/09/02 13:04:01;;;;;;;2.35;1.55;;;22.00;84.30;;;;;;4972233;28;20447;-74
2022/09/02 13:06:51;;;;;;;5.30;1.55;;;22.10;84.00;;;;;;4975084;28;20030;-74
2022/09/02 13:09:43;;;;;;;1.90;1.30;;;22.10;84.60;;;;;;5002380;23;20038;-80
2022/09/02 13:12:17;;;;;;;3.42;1.30;;;22.10;83.70;;;;;;4993684;28;20447;-80
2022/09/02 13:14:58;;;;;;;3.33;1.60;;;22.20;83.10;;;;;;4999418;28;20515;-80